Time;durP1;ratioP1;P1;durP2;ratioP2;P2;SDS_P1;SDS_P2;PMS_P1;PMS_P2;Temp;Humidity;BMP_temperature;BMP_pressure;BME280_temperature;BME280_humidity;BME280_pressure;Samples;Min_cycle;Max_cycle;Signal;HPM_P1;HPM_P2
2022/08/22 00:02:31;;;;;;;7.70;1.50;;;;;;;14.96;100.00;100097.70;105893;1271;24215;-60
2022/08/22 00:05:11;;;;;;;7.90;2.00;;;;;;;14.96;100.00;100102.80;105913;1270;22672;-62
2022/08/22 00:07:51;;;;;;;8.00;1.80;;;;;;;14.96;100.00;100101.83;105975;1270;22560;-62
2022/08/22 00:10:28;;;;;;;5.60;1.30;;;;;;;14.95;100.00;100100.77;105800;1270;22550;-62
2022/08/22 00:13:06;;;;;;;9.70;1.80;;;;;;;14.95;100.00;100095.86;105839;1271;22535;-60
2022/08/22 00:15:43;;;;;;;6.10;1.40;;;;;;;14.95;100.00;100090.73;105824;1271;24217;-62
2022/08/22 00:18:20;;;;;;;9.40;1.70;;;;;;;14.95;100.00;100092.77;105797;1271;22614;-62
2022/08/22 00:21:00;;;;;;;4.00;1.30;;;;;;;14.95;100.00;100100.20;105783;1270;22538;-61
2022/08/22 00:23:38;;;;;;;7.80;1.60;;;;;;;14.97;100.00;100106.08;105960;1270;22563;-62
2022/08/22 00:26:23;;;;;;;5.40;1.60;;;;;;;14.98;100.00;100108.27;105852;1270;26659;-64
2022/08/22 00:28:57;;;;;;;7.90;1.70;;;;;;;14.99;100.00;100108.77;105746;1270;24273;-61
2022/08/22 00:31:33;;;;;;;4.80;1.40;;;;;;;14.98;100.00;100106.57;106125;1270;22540;-60
2022/08/22 00:34:08;;;;;;;7.50;1.90;;;;;;;14.97;100.00;100104.95;105890;1270;25400;-61
2022/08/22 00:36:44;;;;;;;10.40;1.60;;;;;;;14.96;100.00;100100.30;105844;1271;22525;-61
2022/08/22 00:39:22;;;;;;;5.70;1.60;;;;;;;14.95;100.00;100091.81;105836;1270;22548;-62
2022/08/22 00:42:19;;;;;;;6.50;1.60;;;;;;;14.93;100.00;100087.41;105704;1270;24404;-61
2022/08/22 00:45:23;;;;;;;8.00;1.60;;;;;;;14.91;100.00;100081.69;105804;1271;25241;-61
2022/08/22 00:48:03;;;;;;;8.30;1.50;;;;;;;14.91;100.00;100083.59;105556;1276;22645;-62
2022/08/22 00:51:04;;;;;;;4.30;1.40;;;;;;;14.91;100.00;100082.98;105494;1276;22594;-62
2022/08/22 00:53:53;;;;;;;9.20;1.40;;;;;;;14.91;100.00;100079.96;105517;1276;26844;-62
2022/08/22 00:56:59;;;;;;;5.30;1.40;;;;;;;14.91;100.00;100082.11;105583;1276;22525;-62
2022/08/22 01:00:10;;;;;;;7.30;1.40;;;;;;;14.92;100.00;100079.91;105334;1276;22654;-62
2022/08/22 01:03:06;;;;;;;5.50;1.20;;;;;;;14.92;100.00;100075.83;105647;1276;25389;-63
2022/08/22 01:05:52;;;;;;;6.00;1.40;;;;;;;14.92;100.00;100073.05;105487;1276;23105;-63
2022/08/22 01:08:40;;;;;;;4.40;1.20;;;;;;;14.94;100.00;100079.30;105409;1276;22748;-63
2022/08/22 01:11:27;;;;;;;7.90;1.40;;;;;;;14.94;100.00;100076.48;105568;1276;23158;-63
2022/08/22 01:14:28;;;;;;;6.20;1.30;;;;;;;14.96;100.00;100073.52;105461;1276;22565;-61
2022/08/22 01:17:32;;;;;;;3.70;1.40;;;;;;;14.97;100.00;100080.10;105521;1276;22593;-61
2022/08/22 01:20:32;;;;;;;6.80;1.30;;;;;;;14.97;100.00;100080.10;105334;1276;24302;-62
2022/08/22 01:23:30;;;;;;;5.00;1.20;;;;;;;14.98;100.00;100076.02;105438;1276;22632;-61
2022/08/22 01:26:34;;;;;;;4.90;1.30;;;;;;;14.98;100.00;100075.50;105287;1276;24380;-62
2022/08/22 01:29:57;;;;;;;11.60;2.40;;;;;;;14.99;100.00;100073.20;105414;1276;24427;-62
2022/08/22 01:33:09;;;;;;;5.90;1.20;;;;;;;14.98;100.00;100071.47;104947;1281;22769;-60
2022/08/22 01:36:01;;;;;;;5.50;1.60;;;;;;;14.97;100.00;100066.11;105232;1281;22548;-63
2022/08/22 01:39:01;;;;;;;4.20;1.10;;;;;;;14.94;100.00;100061.70;104968;1282;23523;-62
2022/08/22 01:42:06;;;;;;;6.60;1.10;;;;;;;14.93;100.00;100056.80;104974;1281;24387;-62
2022/08/22 01:44:58;;;;;;;4.40;1.10;;;;;;;14.92;100.00;100062.38;105016;1281;23231;-61
2022/08/22 01:47:38;;;;;;;6.20;1.40;;;;;;;14.91;100.00;100063.09;104958;1281;22697;-60
2022/08/22 01:50:13;;;;;;;;;;;;;;;14.90;100.00;100060.70;105128;1281;22522;-61
2022/08/22 01:52:50;;;;;;;4.40;1.10;;;;;;;14.88;100.00;100067.90;105142;1281;23239;-60
2022/08/22 01:55:32;;;;;;;4.30;1.20;;;;;;;14.85;100.00;100066.89;105110;1281;25529;-61
2022/08/22 01:58:17;;;;;;;4.00;0.90;;;;;;;14.85;100.00;100070.61;105084;1281;22917;-61
2022/08/22 02:01:02;;;;;;;3.10;1.10;;;;;;;14.84;100.00;100075.83;105130;1281;24163;-62
2022/08/22 02:03:40;;;;;;;3.50;1.20;;;;;;;14.83;100.00;100077.98;105175;1271;22936;-61
2022/08/22 02:06:17;;;;;;;6.20;1.10;;;;;;;14.82;100.00;100077.10;105727;1270;22529;-59
2022/08/22 02:08:59;;;;;;;3.10;1.00;;;;;;;14.82;100.00;100072.86;105888;1270;24215;-59
2022/08/22 02:11:43;;;;;;;7.70;1.10;;;;;;;14.81;100.00;100074.35;105800;1270;24431;-59
2022/08/22 02:14:41;;;;;;;5.20;1.10;;;;;;;14.80;100.00;100074.40;105801;1270;24421;-62
2022/08/22 02:17:20;;;;;;;4.50;0.80;;;;;;;14.80;100.00;100078.59;105796;1270;23103;-60
2022/08/22 02:20:02;;;;;;;7.40;1.50;;;;;;;14.80;100.00;100080.78;105853;1270;23944;-62
2022/08/22 02:22:41;;;;;;;4.20;0.90;;;;;;;14.79;100.00;100077.63;106624;1261;22685;-67
2022/08/22 02:25:21;;;;;;;5.30;1.70;;;;;;;14.79;100.00;100079.61;106178;1270;25453;-68
2022/08/22 02:27:58;;;;;;;3.50;0.90;;;;;;;14.80;100.00;100081.35;106057;1270;25488;-66
2022/08/22 02:30:44;;;;;;;6.00;1.00;;;;;;;14.80;100.00;100087.28;105858;1270;25412;-68
2022/08/22 02:33:26;;;;;;;4.40;0.90;;;;;;;14.79;100.00;100085.65;105866;1270;25251;-67
2022/08/22 02:36:03;;;;;;;4.10;1.00;;;;;;;14.79;100.00;100087.94;105857;1270;24496;-67
2022/08/22 02:38:41;;;;;;;3.90;1.00;;;;;;;14.78;100.00;100089.02;105814;1271;22704;-67
2022/08/22 02:41:29;;;;;;;4.70;1.00;;;;;;;14.77;100.00;100091.36;105778;1270;22767;-68
2022/08/22 02:44:05;;;;;;;4.50;1.10;;;;;;;14.75;100.00;100087.22;105949;1270;25373;-68
2022/08/22 02:46:55;;;;;;;5.50;1.10;;;;;;;14.74;100.00;100087.17;106009;1270;23953;-67
2022/08/22 02:49:33;;;;;;;6.00;0.90;;;;;;;14.72;100.00;100087.90;105748;1270;22677;-67
2022/08/22 02:52:24;;;;;;;5.70;1.30;;;;;;;14.70;100.00;100083.34;105868;1270;22754;-68
2022/08/22 02:54:56;;;;;;;;;;;;;;;14.68;100.00;100088.05;105776;1271;22775;-71
2022/08/22 02:57:35;;;;;;;4.40;1.00;;;;;;;14.67;100.00;100088.45;106004;1270;22547;-68
2022/08/22 03:00:24;;;;;;;3.40;1.10;;;;;;;14.67;100.00;100091.63;105941;1271;22580;-68
2022/08/22 03:03:05;;;;;;;3.90;1.00;;;;;;;14.67;100.00;100092.23;106059;1270;25329;-67
2022/08/22 03:05:57;;;;;;;4.50;0.90;;;;;;;14.67;100.00;100093.81;106022;1270;24424;-64
2022/08/22 03:08:31;;;;;;;4.80;1.00;;;;;;;14.67;100.00;100097.85;105984;1270;22757;-64
2022/08/22 03:11:21;;;;;;;6.60;1.20;;;;;;;14.67;100.00;100095.30;105982;1270;24440;-64
2022/08/22 03:14:10;;;;;;;7.60;1.40;;;;;;;14.67;100.00;100099.80;105804;1271;22526;-66
2022/08/22 03:16:52;;;;;;;7.70;1.10;;;;;;;14.67;100.00;100096.02;105954;1270;24430;-67
2022/08/22 03:19:30;;;;;;;6.10;1.30;;;;;;;14.67;100.00;100104.29;106086;1270;22643;-67
2022/08/22 03:22:14;;;;;;;3.60;1.10;;;;;;;14.67;100.00;100099.34;106098;1270;22692;-67
2022/08/22 03:24:51;;;;;;;3.70;1.00;;;;;;;14.67;100.00;100103.32;105992;1270;22528;-68
2022/08/22 03:27:28;;;;;;;3.40;1.00;;;;;;;14.67;100.00;100101.27;106034;1271;22580;-70
2022/08/22 03:30:05;;;;;;;5.60;1.10;;;;;;;14.68;100.00;100101.59;106117;1270;26630;-68
2022/08/22 03:32:55;;;;;;;4.00;0.90;;;;;;;14.67;100.00;100099.48;106044;1270;25602;-67
2022/08/22 03:35:35;;;;;;;8.70;1.60;;;;;;;14.66;100.00;100099.53;106168;1270;25711;-66
2022/08/22 03:38:20;;;;;;;3.60;1.00;;;;;;;14.65;100.00;100094.78;106202;1270;22551;-66
2022/08/22 03:41:30;;;;;;;5.40;1.00;;;;;;;14.64;100.00;100098.16;105975;1270;25379;-65
2022/08/22 03:44:20;;;;;;;3.60;0.90;;;;;;;14.62;100.00;100097.03;105663;1276;22659;-66
2022/08/22 03:47:20;;;;;;;5.20;1.20;;;;;;;14.60;100.00;100096.12;105733;1276;23065;-67
2022/08/22 03:50:11;;;;;;;4.10;0.90;;;;;;;14.59;100.00;100096.31;105335;1281;22776;-67
2022/08/22 03:53:26;;;;;;;4.20;0.90;;;;;;;14.58;100.00;100099.29;105365;1281;22543;-67
2022/08/22 03:56:31;;;;;;;3.00;0.90;;;;;;;14.56;100.00;100099.48;105381;1281;22554;-66
2022/08/22 03:59:54;;;;;;;4.50;1.00;;;;;;;14.55;100.00;100098.27;105309;1281;22575;-67
2022/08/22 04:02:48;;;;;;;5.00;1.00;;;;;;;14.53;100.00;100102.85;105155;1282;22540;-66
2022/08/22 04:06:03;;;;;;;3.60;0.90;;;;;;;14.52;100.00;100104.02;105250;1281;22543;-68
2022/08/22 04:09:17;;;;;;;4.40;0.90;;;;;;;14.51;100.00;100102.34;104753;1285;24249;-65
2022/08/22 04:12:14;;;;;;;7.00;1.00;;;;;;;14.50;100.00;100101.62;104034;1291;22538;-68
2022/08/22 04:15:27;;;;;;;4.20;0.80;;;;;;;14.49;100.00;100104.33;104065;1290;23231;-68
2022/08/22 04:18:20;;;;;;;9.40;1.20;;;;;;;14.49;100.00;100102.29;103454;1296;26692;-68
2022/08/22 04:21:15;;;;;;;2.10;0.60;;;;;;;14.48;100.00;100098.92;103437;1296;24645;-62
2022/08/22 04:24:13;;;;;;;3.40;0.60;;;;;;;14.46;100.00;100103.41;103848;1293;22866;-65
2022/08/22 04:26:51;;;;;;;2.10;0.60;;;;;;;14.45;100.00;100105.65;104103;1287;22572;-68
2022/08/22 04:29:30;;;;;;;3.60;0.80;;;;;;;14.44;100.00;100108.36;104461;1287;24481;-66
2022/08/22 04:32:08;;;;;;;4.80;0.70;;;;;;;14.43;100.00;100105.56;104296;1287;22687;-62
2022/08/22 04:34:45;;;;;;;3.30;0.80;;;;;;;14.43;100.00;100109.27;104497;1287;22560;-64
2022/08/22 04:37:23;;;;;;;6.10;1.00;;;;;;;14.42;100.00;100109.32;104580;1287;22582;-63
2022/08/22 04:40:00;;;;;;;5.30;0.90;;;;;;;14.41;100.00;100111.89;104318;1287;22556;-63
2022/08/22 04:42:40;;;;;;;3.60;0.90;;;;;;;14.41;100.00;100114.80;104375;1287;22753;-65
2022/08/22 04:45:17;;;;;;;4.90;0.80;;;;;;;14.41;100.00;100115.36;104942;1282;24695;-66
2022/08/22 04:47:55;;;;;;;3.00;0.50;;;;;;;14.40;100.00;100113.88;105436;1276;22542;-66
2022/08/22 04:50:33;;;;;;;4.80;0.80;;;;;;;14.39;100.00;100108.77;105492;1276;25622;-66
2022/08/22 04:53:27;;;;;;;3.40;0.70;;;;;;;14.39;100.00;100109.16;105584;1277;24305;-65
2022/08/22 04:56:07;;;;;;;6.40;0.90;;;;;;;14.38;100.00;100109.66;105797;1270;22474;-68
2022/08/22 04:58:49;;;;;;;4.80;0.80;;;;;;;14.38;100.00;100108.91;105806;1270;25317;-69
2022/08/22 05:01:24;;;;;;;2.90;0.70;;;;;;;14.37;100.00;100109.98;105765;1270;22550;-69
2022/08/22 05:04:02;;;;;;;6.40;0.80;;;;;;;14.38;100.00;100108.35;105869;1270;22564;-67
2022/08/22 05:06:48;;;;;;;4.90;0.90;;;;;;;14.38;100.00;100109.27;106008;1270;22528;-67
2022/08/22 05:09:24;;;;;;;1.90;0.70;;;;;;;14.38;100.00;100105.19;105952;1270;22601;-67
2022/08/22 05:12:01;;;;;;;4.00;0.70;;;;;;;14.39;100.00;100106.91;105816;1270;22556;-68
2022/08/22 05:14:39;;;;;;;3.60;0.70;;;;;;;14.39;100.00;100107.55;105922;1270;22540;-67
2022/08/22 05:17:14;;;;;;;4.40;0.90;;;;;;;14.40;100.00;100108.25;105741;1270;22571;-68
2022/08/22 05:19:50;;;;;;;3.80;1.30;;;;;;;14.41;100.00;100109.34;106099;1270;24296;-69
2022/08/22 05:22:29;;;;;;;2.00;0.60;;;;;;;14.43;100.00;100110.35;105690;1270;22548;-68
2022/08/22 05:25:05;;;;;;;6.00;0.60;;;;;;;14.44;100.00;100112.54;105729;1270;23286;-68
2022/08/22 05:27:45;;;;;;;3.70;0.80;;;;;;;14.45;100.00;100117.50;105732;1270;22710;-68
2022/08/22 05:30:28;;;;;;;2.50;0.70;;;;;;;14.46;100.00;100120.20;105882;1270;22742;-67
2022/08/22 05:33:07;;;;;;;4.50;0.90;;;;;;;14.47;100.00;100122.15;105875;1270;22660;-67
2022/08/22 05:35:41;;;;;;;4.20;0.70;;;;;;;14.48;100.00;100122.66;105862;1270;25370;-67
2022/08/22 05:38:17;;;;;;;2.10;0.70;;;;;;;14.49;100.00;100126.09;106147;1270;22675;-68
2022/08/22 05:40:56;;;;;;;4.60;0.60;;;;;;;14.50;100.00;100130.17;105804;1271;24385;-67
2022/08/22 05:43:28;;;;;;;2.20;0.60;;;;;;;14.51;100.00;100128.34;105826;1270;22513;-67
2022/08/22 05:46:01;;;;;;;3.20;0.60;;;;;;;14.53;100.00;100133.29;105923;1270;23201;-65
2022/08/22 05:48:40;;;;;;;3.10;0.60;;;;;;;14.53;100.00;100134.92;105887;1270;22561;-63
2022/08/22 05:51:20;;;;;;;1.90;0.50;;;;;;;14.55;100.00;100137.23;106315;1270;25840;-62
2022/08/22 05:54:07;;;;;;;5.50;0.70;;;;;;;14.56;100.00;100135.66;105911;1270;25481;-62
2022/08/22 05:56:43;;;;;;;2.60;0.50;;;;;;;14.56;100.00;100133.45;105973;1270;22554;-63
2022/08/22 05:59:23;;;;;;;3.00;0.50;;;;;;;14.56;100.00;100138.00;105978;1270;24540;-61
2022/08/22 06:02:07;;;;;;;3.30;0.70;;;;;;;14.57;100.00;100138.35;106041;1270;22561;-62
2022/08/22 06:04:48;;;;;;;2.40;0.70;;;;;;;14.58;100.00;100143.71;106359;1270;25430;-62
2022/08/22 06:07:25;;;;;;;3.90;0.60;;;;;;;14.60;100.00;100145.71;105962;1270;22560;-64
2022/08/22 06:10:16;;;;;;;3.40;0.70;;;;;;;14.61;100.00;100145.88;105864;1270;22534;-64
2022/08/22 06:12:55;;;;;;;1.60;0.50;;;;;;;14.63;100.00;100148.64;106047;1270;22636;-63
2022/08/22 06:15:35;;;;;;;5.10;0.90;;;;;;;14.65;100.00;100150.37;105937;1270;23819;-63
2022/08/22 06:18:11;;;;;;;4.00;0.80;;;;;;;14.66;100.00;100150.98;105895;1270;22544;-64
2022/08/22 06:20:48;;;;;;;3.30;0.70;;;;;;;14.67;100.00;100145.16;105897;1270;22553;-62
2022/08/22 06:23:27;;;;;;;5.10;0.90;;;;;;;14.67;100.00;100145.11;105789;1270;22633;-63
2022/08/22 06:26:02;;;;;;;2.70;0.80;;;;;;;14.69;100.00;100144.14;106080;1270;22540;-62
2022/08/22 06:28:38;;;;;;;4.40;0.60;;;;;;;14.69;100.00;100147.04;106117;1270;22558;-63
2022/08/22 06:31:17;;;;;;;4.50;0.80;;;;;;;14.70;100.00;100144.04;105858;1270;22551;-65
2022/08/22 06:33:57;;;;;;;4.20;0.80;;;;;;;14.70;100.00;100146.33;106072;1270;25365;-68
2022/08/22 06:36:30;;;;;;;3.20;0.80;;;;;;;14.69;100.00;100146.85;106026;1270;24431;-68
2022/08/22 06:39:21;;;;;;;3.70;0.80;;;;;;;14.69;100.00;100146.39;105897;1270;22554;-67
2022/08/22 06:41:57;;;;;;;4.20;1.00;;;;;;;14.68;100.00;100148.42;105835;1270;25265;-66
2022/08/22 06:44:36;;;;;;;3.20;0.70;;;;;;;14.67;100.00;100150.22;105882;1270;24240;-67
2022/08/22 06:47:15;;;;;;;2.40;0.70;;;;;;;14.66;100.00;100149.34;105800;1270;24367;-62
2022/08/22 06:49:48;;;;;;;4.40;0.90;;;;;;;14.63;100.00;100149.55;105943;1270;22559;-65
2022/08/22 06:52:25;;;;;;;6.20;0.90;;;;;;;14.60;100.00;100150.88;106059;1270;25334;-64
2022/08/22 06:55:02;;;;;;;6.10;0.90;;;;;;;14.57;100.00;100156.34;105951;1270;22568;-65
2022/08/22 06:57:37;;;;;;;2.70;0.60;;;;;;;14.55;100.00;100158.58;105984;1270;22570;-62
2022/08/22 07:00:13;;;;;;;3.70;0.60;;;;;;;14.53;100.00;100152.45;106013;1270;22662;-64
2022/08/22 07:02:48;;;;;;;2.90;0.70;;;;;;;14.51;100.00;100155.14;106035;1270;22557;-64
2022/08/22 07:05:24;;;;;;;2.90;0.60;;;;;;;14.50;100.00;100155.96;105762;1270;22528;-66
2022/08/22 07:07:57;;;;;;;3.10;0.70;;;;;;;14.49;100.00;100155.10;105839;1270;24304;-67
2022/08/22 07:10:30;;;;;;;3.40;0.80;;;;;;;14.48;100.00;100158.63;105986;1270;26679;-67
2022/08/22 07:13:03;;;;;;;2.30;0.60;;;;;;;14.48;100.00;100152.64;106117;1268;22528;-66
2022/08/22 07:15:37;;;;;;;3.20;0.70;;;;;;;14.48;100.00;100156.42;106010;1270;22544;-65
2022/08/22 07:18:16;;;;;;;3.50;0.70;;;;;;;14.48;100.00;100156.31;105878;1270;22490;-65
2022/08/22 07:20:53;;;;;;;3.30;0.70;;;;;;;14.49;100.00;100156.78;105983;1270;23189;-64
2022/08/22 07:23:34;;;;;;;4.80;1.00;;;;;;;14.49;100.00;100156.98;101953;1270;5454314;-65
2022/08/22 07:26:22;;;;;;;3.20;0.70;;;;;;;14.50;100.00;100158.11;105848;1270;25248;-65
2022/08/22 07:28:59;;;;;;;3.70;0.80;;;;;;;14.51;100.00;100153.46;105963;1270;22629;-65
2022/08/22 07:31:38;;;;;;;2.70;0.70;;;;;;;14.53;100.00;100160.72;106046;1270;22532;-65
2022/08/22 07:34:30;;;;;;;3.20;0.70;;;;;;;14.55;100.00;100160.98;106091;1270;22609;-67
2022/08/22 07:37:08;;;;;;;2.70;0.70;;;;;;;14.56;100.00;100160.88;105927;1270;23164;-68
2022/08/22 07:39:50;;;;;;;3.20;0.70;;;;;;;14.58;100.00;100156.75;106028;1270;23015;-67
2022/08/22 07:45:07;;;;;;;4.10;0.70;;;;;;;14.63;100.00;100161.23;107408;1260;91898;-78
2022/08/22 07:47:57;;;;;;;3.10;0.60;;;;;;;14.65;100.00;100161.09;107159;1268;23936;-79
2022/08/22 07:50:31;;;;;;;3.60;0.80;;;;;;;14.68;100.00;100160.72;107427;1268;22532;-79
2022/08/22 07:53:12;;;;;;;3.50;0.60;;;;;;;14.68;100.00;100163.04;107337;1268;24413;-79
2022/08/22 07:55:46;;;;;;;3.90;0.70;;;;;;;14.69;100.00;100160.89;107502;1271;22719;-78
2022/08/22 07:58:21;;;;;;;2.90;0.60;;;;;;;14.70;100.00;100164.92;107717;1271;24006;-78
2022/08/22 08:00:54;;;;;;;4.00;0.80;;;;;;;14.71;100.00;100164.92;107603;1271;22525;-79
2022/08/22 08:03:29;;;;;;;2.40;0.60;;;;;;;14.73;100.00;100166.31;107710;1271;24261;-79
2022/08/22 08:06:02;;;;;;;2.80;0.70;;;;;;;14.75;100.00;100171.17;107616;1271;22597;-78
2022/08/22 08:08:39;;;;;;;3.00;0.60;;;;;;;14.76;100.00;100173.06;107201;1271;22518;-77
2022/08/22 08:11:15;;;;;;;1.90;0.60;;;;;;;14.78;100.00;100170.77;107286;1269;22605;-75
2022/08/22 08:13:51;;;;;;;6.10;0.70;;;;;;;14.80;100.00;100167.77;107163;1271;22581;-79
2022/08/22 08:16:27;;;;;;;1.90;0.50;;;;;;;14.83;100.00;100171.23;107283;1270;24288;-79
2022/08/22 08:19:02;;;;;;;2.40;0.50;;;;;;;14.86;100.00;100171.89;107287;1271;22541;-78
2022/08/22 08:21:38;;;;;;;1.80;0.50;;;;;;;14.89;100.00;100168.92;107248;1271;22719;-79
2022/08/22 08:24:16;;;;;;;1.80;0.50;;;;;;;14.91;100.00;100166.59;107432;1271;25446;-79
2022/08/22 08:29:53;;;;;;;1.30;0.40;;;;;;;15.01;100.00;100169.69;107333;1270;25502;-80
2022/08/22 08:32:27;;;;;;;2.20;0.40;;;;;;;15.05;100.00;100171.17;107241;1271;24307;-80
2022/08/22 08:35:08;;;;;;;2.40;0.50;;;;;;;15.09;100.00;100174.00;107283;1271;24328;-79
2022/08/22 08:37:46;;;;;;;2.50;0.60;;;;;;;15.13;100.00;100174.10;107250;1271;25366;-79
2022/08/22 08:40:34;;;;;;;2.60;0.50;;;;;;;15.16;100.00;100175.52;107182;1270;22547;-79
2022/08/22 08:43:28;;;;;;;2.20;0.40;;;;;;;15.20;100.00;100178.27;107157;1270;22525;-78
2022/08/22 08:46:25;;;;;;;5.10;0.60;;;;;;;15.22;100.00;100169.48;107163;1270;22681;-79
2022/08/22 08:49:33;;;;;;;3.20;0.50;;;;;;;15.24;100.00;100169.63;107066;1271;22583;-79
2022/08/22 08:52:31;;;;;;;2.60;0.70;;;;;;;15.26;100.00;100166.83;106662;1276;24217;-79
2022/08/22 08:55:12;;;;;;;4.20;0.70;;;;;;;15.30;100.00;100167.90;106629;1276;25372;-79
2022/08/22 08:57:58;;;;;;;1.80;0.50;;;;;;;15.33;100.00;100167.33;106722;1276;24365;-79
2022/08/22 09:00:46;;;;;;;2.50;0.70;;;;;;;15.38;100.00;100165.58;106650;1276;23896;-79
2022/08/22 09:03:36;;;;;;;3.10;0.70;;;;;;;15.43;100.00;100159.85;106531;1276;22535;-79
2022/08/22 09:06:39;;;;;;;5.10;0.80;;;;;;;15.49;100.00;100157.77;106492;1276;22550;-78
2022/08/22 09:09:26;;;;;;;2.70;0.90;;;;;;;15.54;100.00;100157.55;106384;1276;24304;-79
2022/08/22 09:12:32;;;;;;;5.00;1.20;;;;;;;15.57;100.00;100153.29;106568;1276;22548;-78
2022/08/22 09:15:18;;;;;;;2.80;0.90;;;;;;;15.62;100.00;100152.46;106538;1276;22529;-80
2022/08/22 09:18:34;;;;;;;2.80;1.00;;;;;;;15.67;100.00;100153.77;106558;1276;22576;-79
2022/08/22 09:21:56;;;;;;;4.40;1.10;;;;;;;15.73;100.00;100157.86;106850;1275;24363;-80
2022/08/22 09:24:57;;;;;;;5.30;1.20;;;;;;;15.76;100.00;100160.50;105862;1281;22664;-79
2022/08/22 09:27:35;;;;;;;5.40;1.20;;;;;;;15.79;100.00;100157.98;105971;1281;24212;-78
2022/08/22 09:30:22;;;;;;;5.90;1.20;;;;;;;15.78;100.00;100157.69;106524;1274;22691;-80
2022/08/22 09:33:02;;;;;;;7.60;2.30;;;;;;;15.77;100.00;100157.33;106526;1276;22474;-79
2022/08/22 09:35:47;;;;;;;6.60;1.60;;;;;;;15.77;100.00;100154.19;106610;1276;23106;-79
2022/08/22 09:38:38;;;;;;;5.80;1.60;;;;;;;15.78;100.00;100154.97;106567;1276;24339;-79
2022/08/22 09:41:35;;;;;;;6.20;1.40;;;;;;;15.76;100.00;100151.55;106658;1276;25282;-79
2022/08/22 09:44:18;;;;;;;4.10;1.50;;;;;;;15.78;100.00;100154.80;106483;1276;24246;-79
2022/08/22 09:47:01;;;;;;;9.00;1.90;;;;;;;15.82;100.00;100157.41;106586;1276;22829;-79
2022/08/22 09:49:51;;;;;;;7.90;2.00;;;;;;;15.86;100.00;100157.35;106648;1276;22550;-80
2022/08/22 09:52:47;;;;;;;8.80;2.20;;;;;;;15.87;100.00;100158.09;106513;1276;24804;-79
2022/08/22 09:55:38;;;;;;;8.20;2.10;;;;;;;15.88;100.00;100157.95;106628;1276;26535;-79
2022/08/22 09:58:18;;;;;;;11.40;2.40;;;;;;;15.87;100.00;100154.37;106916;1271;22724;-79
2022/08/22 10:00:55;;;;;;;8.20;1.90;;;;;;;15.88;100.00;100154.21;107372;1271;24018;-80
2022/08/22 10:03:48;;;;;;;7.50;2.00;;;;;;;15.90;100.00;100150.98;107398;1269;24219;-79
2022/08/22 10:06:27;;;;;;;8.30;2.00;;;;;;;15.93;100.00;100149.23;107326;1271;22740;-79
2022/08/22 10:09:10;;;;;;;7.70;2.00;;;;;;;15.94;100.00;100146.25;107377;1270;22529;-80
2022/08/22 10:11:48;;;;;;;9.60;2.40;;;;;;;15.94;100.00;100148.96;107363;1271;22720;-79
2022/08/22 10:14:26;;;;;;;7.40;2.40;;;;;;;15.93;100.00;100149.98;107513;1270;22615;-79
2022/08/22 10:17:11;;;;;;;10.10;2.80;;;;;;;15.95;100.00;100149.73;107296;1270;24236;-79
2022/08/22 10:19:47;;;;;;;8.50;2.60;;;;;;;15.96;100.00;100150.33;107300;1271;25376;-79
2022/08/22 10:22:29;;;;;;;8.50;2.50;;;;;;;15.94;100.00;100147.02;107234;1271;22550;-79
2022/08/22 10:25:21;;;;;;;10.90;3.00;;;;;;;15.95;100.00;100149.06;107324;1271;22556;-79
2022/08/22 10:28:16;;;;;;;10.80;3.30;;;;;;;15.96;100.00;100150.60;107153;1271;25369;-79
2022/08/22 10:31:01;;;;;;;11.10;3.00;;;;;;;15.98;100.00;100152.33;107242;1270;22528;-78
2022/08/22 10:33:39;;;;;;;8.60;3.00;;;;;;;15.99;100.00;100154.73;107295;1271;23378;-78
2022/08/22 10:36:15;;;;;;;10.50;3.60;;;;;;;15.99;100.00;100156.91;107261;1271;22559;-79
2022/08/22 10:38:51;;;;;;;11.70;3.10;;;;;;;16.01;100.00;100161.17;107259;1271;23401;-79
2022/08/22 10:41:34;;;;;;;10.20;3.10;;;;;;;16.01;100.00;100164.25;107247;1270;22522;-79
2022/08/22 10:44:16;;;;;;;9.90;3.40;;;;;;;16.04;100.00;100165.36;107203;1269;22685;-79
2022/08/22 10:46:53;;;;;;;11.70;3.60;;;;;;;16.05;100.00;100163.55;107130;1270;22538;-80
2022/08/22 10:49:30;;;;;;;12.40;4.00;;;;;;;16.08;100.00;100160.98;107255;1270;24089;-80
2022/08/22 10:52:08;;;;;;;11.40;3.80;;;;;;;16.11;100.00;100161.48;107314;1271;25534;-79
2022/08/22 10:54:51;;;;;;;11.50;4.40;;;;;;;16.14;100.00;100159.67;107412;1271;25816;-80
2022/08/22 10:57:45;;;;;;;11.70;3.80;;;;;;;16.16;100.00;100159.92;107332;1270;22591;-79
2022/08/22 11:00:31;;;;;;;8.80;3.30;;;;;;;16.18;100.00;100162.05;107314;1271;22575;-80
2022/08/22 11:03:11;;;;;;;10.60;3.30;;;;;;;16.19;100.00;100158.48;107338;1270;22629;-80
2022/08/22 11:05:45;;;;;;;11.40;3.40;;;;;;;16.20;100.00;100163.98;107458;1269;23045;-80
2022/08/22 11:08:41;;;;;;;12.30;4.50;;;;;;;16.21;100.00;100160.88;107263;1270;25511;-80
2022/08/22 11:11:24;;;;;;;11.80;4.40;;;;;;;16.24;100.00;100158.91;107258;1270;24524;-79
2022/08/22 11:14:36;;;;;;;13.30;4.00;;;;;;;16.26;100.00;100160.73;107215;1270;23311;-79
2022/08/22 11:17:26;;;;;;;12.70;4.20;;;;;;;16.25;100.00;100158.09;107170;1270;22703;-79
2022/08/22 11:20:19;;;;;;;14.60;4.90;;;;;;;16.25;100.00;100154.75;107072;1268;23209;-79
2022/08/22 11:23:06;;;;;;;13.50;4.80;;;;;;;16.24;100.00;100153.99;107194;1270;25260;-79
2022/08/22 11:25:53;;;;;;;12.70;5.00;;;;;;;16.27;100.00;100155.83;107276;1270;22555;-79
2022/08/22 11:28:55;;;;;;;15.30;5.20;;;;;;;16.31;100.00;100159.19;107302;1270;22547;-81
2022/08/22 11:31:37;;;;;;;12.50;5.00;;;;;;;16.33;100.00;100154.45;107220;1270;22708;-79
2022/08/22 11:34:15;;;;;;;16.30;5.70;;;;;;;16.33;100.00;100158.24;107240;1270;25255;-79
2022/08/22 11:36:54;;;;;;;18.20;6.50;;;;;;;16.36;100.00;100161.20;107178;1270;25925;-78
2022/08/22 11:39:34;;;;;;;15.50;6.20;;;;;;;16.39;100.00;100157.27;107353;1271;24303;-78
2022/08/22 11:42:13;;;;;;;16.10;6.70;;;;;;;16.43;100.00;100160.80;107242;1269;22538;-78
2022/08/22 11:44:52;;;;;;;16.20;6.70;;;;;;;16.47;100.00;100165.75;107223;1271;22969;-79
2022/08/22 11:47:31;;;;;;;20.00;7.20;;;;;;;16.49;100.00;100171.64;107272;1270;24224;-79
2022/08/22 11:50:13;;;;;;;17.50;7.70;;;;;;;16.53;100.00;100173.73;107278;1271;25242;-78
2022/08/22 11:53:06;;;;;;;17.50;7.00;;;;;;;16.58;100.00;100167.90;107274;1270;25213;-79
2022/08/22 11:55:42;;;;;;;15.00;6.40;;;;;;;16.61;100.00;100164.34;107170;1271;22471;-80
2022/08/22 11:58:30;;;;;;;16.50;7.20;;;;;;;16.62;100.00;100169.42;107470;1269;22527;-80
2022/08/22 12:01:09;;;;;;;17.50;7.10;;;;;;;16.64;100.00;100167.51;107369;1271;22580;-79
2022/08/22 12:03:59;;;;;;;17.80;7.50;;;;;;;16.67;100.00;100171.83;107266;1270;22471;-80
2022/08/22 12:06:58;;;;;;;15.30;8.00;;;;;;;16.71;100.00;100169.15;107412;1270;22577;-80
2022/08/22 12:09:42;;;;;;;14.80;6.50;;;;;;;16.74;100.00;100168.20;107457;1269;27075;-80
2022/08/22 12:12:32;;;;;;;16.00;6.10;;;;;;;16.74;100.00;100167.64;107345;1269;22545;-79
2022/08/22 12:15:11;;;;;;;17.30;7.30;;;;;;;16.75;100.00;100168.40;107289;1270;23346;-79
2022/08/22 12:18:08;;;;;;;15.20;6.60;;;;;;;16.76;100.00;100164.30;107562;1271;22544;-80
2022/08/22 12:21:04;;;;;;;18.90;7.70;;;;;;;16.77;100.00;100166.14;107256;1271;22561;-79
2022/08/22 12:24:06;;;;;;;16.30;7.00;;;;;;;16.80;100.00;100163.91;107259;1271;22698;-80
2022/08/22 12:26:51;;;;;;;17.00;7.40;;;;;;;16.83;100.00;100163.27;107349;1271;22681;-80
2022/08/22 12:29:33;;;;;;;14.40;6.90;;;;;;;16.86;100.00;100162.83;107384;1269;22582;-79
2022/08/22 12:32:33;;;;;;;20.40;7.50;;;;;;;16.91;100.00;100161.97;107450;1269;23075;-78
2022/08/22 12:35:23;;;;;;;16.50;7.20;;;;;;;16.92;100.00;100157.50;106787;1273;22544;-79